CZUM/ZUM METAR and TAF weather

Enter ICAO airport designator
Station Type Date Time Source
CZUM METAR 2022/01/26 20:00 UTC NOAA

CZUM 262000Z AUTO 26008KT 210V310 9SM CLR M27/M32 A2995 RMK SLP203


Station Type Date Time Source
CZUM Decoded METAR 2022/01/26 20:00 UTC NOAA

Churchill Falls, Nfld., Canada (CZUM) 53-33N 064-06W 440M
Jan 26, 2022 - 03:00 PM EST / 2022.01.26 2000 UTC
Wind: from the W (260 degrees) at 9 MPH (8 KT) (direction variable):0
Visibility: 9 mile(s):0
Sky conditions: clear
Temperature: -16 F (-27 C)
Windchill: -34 F (-37 C):2
Dew Point: -25 F (-32 C)
Relative Humidity: 62%
Pressure (altimeter): 29.95 in. Hg (1014 hPa)
ob: CZUM 262000Z AUTO 26008KT 210V310 9SM CLR M27/M32 A2995 RMK SLP203
cycle: 20

Station Type Date Time Source
CZUM TAF 2022/01/26 20:42 UTC NOAA

TAF CZUM 261940Z 2620/2708 27007KT P6SM SKC
FM270200 VRB03KT P6SM SKC
TEMPO 2702/2708 6SM IC
RMK FCST BASED ON AUTO OBS. NXT FCST BY 270200Z

Example: see airport list